createdAt,value
2023-04-03T00:00:47.630Z,102206.66
2023-04-03T00:03:33.897Z,102212.91
2023-04-03T00:06:19.282Z,102214.38
2023-04-03T00:09:04.537Z,102213.47
2023-04-03T00:11:49.908Z,102215.25
2023-04-03T00:14:35.418Z,102212.25
2023-04-03T00:17:20.218Z,102206.47
2023-04-03T00:20:06.522Z,102214.72
2023-04-03T00:22:51.561Z,102209.72
2023-04-03T00:25:37.414Z,102223.59
2023-04-03T00:28:23.115Z,102225.38
2023-04-03T00:31:08.205Z,102231.16
2023-04-03T00:33:53.181Z,102232.47
2023-04-03T00:36:38.531Z,102235.03
2023-04-03T00:39:23.839Z,102235.25
2023-04-03T00:42:09.327Z,102239.72
2023-04-03T00:44:57.935Z,102235.69
2023-04-03T00:47:43.237Z,102250.94
2023-04-03T00:50:30.327Z,102247.69
2023-04-03T00:53:30.332Z,102247.94
2023-04-03T00:56:18.871Z,102252.13
2023-04-03T00:59:13.018Z,102251.03
2023-04-03T01:02:00.783Z,102248.81
2023-04-03T01:04:46.091Z,102255.34
2023-04-03T01:07:32.290Z,102251.09
2023-04-03T01:10:19.157Z,102260.63
2023-04-03T01:13:18.659Z,102260.38
2023-04-03T01:16:06.308Z,102270.03
2023-04-03T01:18:51.457Z,102257.38
2023-04-03T01:22:05.854Z,102264.25
2023-04-03T01:24:50.941Z,102264.69
2023-04-03T01:27:35.882Z,102264.44
2023-04-03T01:30:27.179Z,102265.53
2023-04-03T01:33:12.655Z,102274.06
2023-04-03T01:35:58.153Z,102280.78
2023-04-03T01:38:43.353Z,102280.41
2023-04-03T01:41:29.485Z,102286.34
2023-04-03T01:44:15.340Z,102294.06
2023-04-03T01:47:00.402Z,102291.41
2023-04-03T01:49:45.450Z,102290.34
2023-04-03T01:52:30.962Z,102297.81
2023-04-03T01:55:16.361Z,102299.00
2023-04-03T01:58:01.919Z,102311.13
2023-04-03T02:00:46.909Z,102300.91
2023-04-03T02:03:31.866Z,102294.97
2023-04-03T02:06:17.049Z,102300.53
2023-04-03T02:09:02.434Z,102308.47
2023-04-03T02:11:47.679Z,102307.75
2023-04-03T02:14:32.484Z,102308.53
2023-04-03T02:17:17.875Z,102308.00
2023-04-03T02:20:04.469Z,102313.75
2023-04-03T02:22:49.896Z,102300.75
2023-04-03T02:25:37.203Z,102312.84
2023-04-03T02:28:23.611Z,102302.03
2023-04-03T02:31:10.260Z,102303.88
2023-04-03T02:33:55.335Z,102299.78
2023-04-03T02:36:40.623Z,102308.47
2023-04-03T02:39:26.214Z,102307.69
2023-04-03T02:42:11.018Z,102298.91
2023-04-03T02:44:56.264Z,102309.75
2023-04-03T02:47:42.352Z,102319.53
2023-04-03T02:50:27.719Z,102306.97
2023-04-03T02:53:13.007Z,102305.94
2023-04-03T02:55:57.796Z,102311.19
2023-04-03T02:58:43.794Z,102311.44
2023-04-03T03:01:28.760Z,102316.44
2023-04-03T03:04:14.106Z,102314.03
2023-04-03T03:06:59.557Z,102323.94
2023-04-03T03:09:45.007Z,102318.59
2023-04-03T03:12:31.995Z,102321.53
2023-04-03T03:15:17.946Z,102320.25
2023-04-03T03:18:03.241Z,102314.94
2023-04-03T03:20:55.866Z,102314.69
2023-04-03T03:23:41.246Z,102323.22
2023-04-03T03:26:26.128Z,102317.25
2023-04-03T03:29:11.489Z,102321.28
2023-04-03T03:31:56.546Z,102325.28
2023-04-03T03:34:41.784Z,102331.91
2023-04-03T03:37:27.018Z,102329.09
2023-04-03T03:40:12.635Z,102324.91
2023-04-03T03:42:57.899Z,102333.03
2023-04-03T03:45:42.712Z,102331.63
2023-04-03T03:48:27.834Z,102330.13
2023-04-03T03:51:13.074Z,102328.97
2023-04-03T03:53:58.431Z,102323.09
2023-04-03T03:56:43.755Z,102326.94
2023-04-03T03:59:28.553Z,102335.97
2023-04-03T04:02:13.524Z,102335.72
2023-04-03T04:04:58.848Z,102340.94
2023-04-03T04:07:43.886Z,102340.56
2023-04-03T04:10:28.760Z,102354.66
2023-04-03T04:13:14.340Z,102348.44
2023-04-03T04:15:59.919Z,102353.13
2023-04-03T04:18:45.116Z,102354.16
2023-04-03T04:21:30.258Z,102356.97
2023-04-03T04:24:15.783Z,102363.56
2023-04-03T04:27:00.967Z,102367.88
2023-04-03T04:29:46.003Z,102366.06
2023-04-03T04:32:31.475Z,102366.19
2023-04-03T04:35:17.146Z,102369.47
2023-04-03T04:38:02.468Z,102377.63
2023-04-03T04:40:48.679Z,102381.66
2023-04-03T04:43:34.011Z,102381.28
2023-04-03T04:46:19.556Z,102393.81
2023-04-03T04:49:05.080Z,102388.41
2023-04-03T04:51:52.225Z,102388.81
2023-04-03T04:54:38.144Z,102399.72
2023-04-03T04:57:23.586Z,102399.47
2023-04-03T05:00:09.504Z,102396.72
2023-04-03T05:02:54.436Z,102403.66
2023-04-03T05:05:39.774Z,102405.59
2023-04-03T05:08:25.502Z,102410.53
2023-04-03T05:11:10.825Z,102411.78
2023-04-03T05:13:56.581Z,102410.63
2023-04-03T05:16:42.019Z,102422.59
2023-04-03T05:19:27.432Z,102419.63
2023-04-03T05:22:12.784Z,102425.16
2023-04-03T05:24:57.809Z,102424.13
2023-04-03T05:27:43.007Z,102423.75
2023-04-03T05:30:28.063Z,102423.66
2023-04-03T05:33:13.921Z,102432.00
2023-04-03T05:36:04.749Z,102431.03
2023-04-03T05:38:50.093Z,102434.31
2023-04-03T05:41:35.533Z,102441.22
2023-04-03T05:44:20.605Z,102442.34
2023-04-03T05:47:05.929Z,102445.31
2023-04-03T05:49:51.153Z,102456.28
2023-04-03T05:52:40.964Z,102441.56
2023-04-03T05:55:25.759Z,102453.34
2023-04-03T05:58:11.690Z,102448.47
2023-04-03T06:00:57.136Z,102448.63
2023-04-03T06:03:42.636Z,102444.44
2023-04-03T06:06:44.261Z,102448.50
2023-04-03T06:09:29.825Z,102445.72
2023-04-03T06:12:15.242Z,102455.03
2023-04-03T06:15:00.353Z,102454.69
2023-04-03T06:17:45.228Z,102449.09
2023-04-03T06:20:30.796Z,102451.00
2023-04-03T06:23:16.109Z,102445.56
2023-04-03T06:26:01.464Z,102445.00
2023-04-03T06:28:47.083Z,102439.91
2023-04-03T06:31:32.480Z,102429.50
2023-04-03T06:34:18.200Z,102419.47
2023-04-03T06:37:03.403Z,102402.94
2023-04-03T06:39:50.047Z,102380.41
2023-04-03T06:42:35.218Z,102380.75
2023-04-03T06:45:20.085Z,102350.19
2023-04-03T06:48:05.612Z,102333.16
2023-04-03T06:50:50.639Z,102327.69
2023-04-03T06:53:36.268Z,102332.88
2023-04-03T06:56:21.944Z,102319.53
2023-04-03T06:59:07.322Z,102315.53
2023-04-03T07:01:53.012Z,102298.06
2023-04-03T07:04:38.236Z,102305.06
2023-04-03T07:07:23.403Z,102295.94
2023-04-03T07:10:09.312Z,102304.78
2023-04-03T07:12:54.276Z,102282.81
2023-04-03T07:15:39.919Z,102292.03
2023-04-03T07:18:25.869Z,102290.34
2023-04-03T07:21:10.824Z,102247.47
2023-04-03T07:23:56.357Z,102239.91
2023-04-03T07:26:41.449Z,102246.44
2023-04-03T07:29:26.829Z,102252.94
2023-04-03T07:32:12.004Z,102226.47
2023-04-03T07:34:57.180Z,102187.13
2023-04-03T07:37:42.058Z,102177.63
2023-04-03T07:40:26.926Z,102184.25
2023-04-03T07:43:12.365Z,102168.50
2023-04-03T07:45:58.137Z,102166.22
2023-04-03T07:48:43.124Z,102148.00
2023-04-03T07:51:28.397Z,102144.72
2023-04-03T07:54:13.945Z,102168.50
2023-04-03T07:56:58.904Z,102138.06
2023-04-03T07:59:44.272Z,102132.84
2023-04-03T08:02:29.589Z,102098.66
2023-04-03T08:05:15.014Z,102115.75
2023-04-03T08:08:00.475Z,102093.06
2023-04-03T08:10:49.379Z,102061.38
2023-04-03T08:13:35.112Z,102070.09
2023-04-03T08:16:23.343Z,102061.72
2023-04-03T08:19:15.148Z,102024.00
2023-04-03T08:22:04.404Z,102022.34
2023-04-03T08:24:58.626Z,101965.69
2023-04-03T08:27:44.877Z,102012.19
2023-04-03T08:30:29.871Z,101947.88
2023-04-03T08:33:15.159Z,101945.13
2023-04-03T08:36:00.519Z,101944.00
2023-04-03T08:38:45.905Z,101941.13
2023-04-03T08:41:43.596Z,101946.69
2023-04-03T08:44:51.038Z,101978.84
2023-04-03T08:48:15.980Z,102005.53
2023-04-03T08:51:10.881Z,101989.19
2023-04-03T08:54:07.546Z,101963.25
2023-04-03T08:56:53.742Z,101997.69
2023-04-03T08:59:40.469Z,101970.78
2023-04-03T09:02:49.653Z,101937.91
2023-04-03T09:05:49.960Z,102008.00
2023-04-03T09:08:47.295Z,102021.41
2023-04-03T09:11:35.434Z,101966.59
2023-04-03T09:14:29.913Z,102031.03
2023-04-03T09:17:28.593Z,102058.59
2023-04-03T09:20:39.156Z,102010.28
2023-04-03T09:23:24.598Z,101972.22
2023-04-03T09:26:15.267Z,102000.25
2023-04-03T09:29:05.863Z,101990.09
2023-04-03T09:31:57.085Z,102006.91
2023-04-03T09:34:43.847Z,102009.81
2023-04-03T09:37:39.010Z,101983.75
2023-04-03T09:40:28.091Z,101969.03
2023-04-03T09:43:33.023Z,102008.19
2023-04-03T09:46:35.143Z,101962.78
2023-04-03T09:49:20.743Z,101988.09
2023-04-03T09:52:27.125Z,101993.81
2023-04-03T09:55:39.101Z,101991.19
2023-04-03T09:58:36.085Z,102019.97
2023-04-03T10:01:35.819Z,101980.81
2023-04-03T10:04:21.260Z,101959.91
2023-04-03T10:07:31.741Z,101952.06
2023-04-03T10:10:20.656Z,101932.69
2023-04-03T10:13:10.576Z,101938.00
2023-04-03T10:16:15.758Z,101934.03
2023-04-03T10:19:21.205Z,101950.28
2023-04-03T10:22:41.331Z,101959.06
2023-04-03T10:25:44.799Z,101933.28
2023-04-03T10:28:45.073Z,101960.56
2023-04-03T10:31:50.147Z,101896.38
2023-04-03T10:34:46.771Z,101935.44
2023-04-03T10:38:14.468Z,101902.59
2023-04-03T10:41:29.263Z,101907.72
2023-04-03T10:44:15.096Z,101994.78
2023-04-03T10:47:10.702Z,101938.69
2023-04-03T10:50:24.726Z,101891.72
2023-04-03T10:53:24.846Z,101970.53
2023-04-03T10:56:42.567Z,101981.59
2023-04-03T10:59:52.431Z,101941.91
2023-04-03T11:02:51.860Z,101901.13
2023-04-03T11:05:46.544Z,101892.28
2023-04-03T11:08:57.999Z,101923.03
2023-04-03T11:11:44.445Z,101858.00
2023-04-03T11:14:33.772Z,101851.63
2023-04-03T11:17:19.136Z,101859.97
2023-04-03T11:20:13.678Z,101865.66
2023-04-03T11:23:04.301Z,101909.84
2023-04-03T11:25:54.496Z,101939.75
2023-04-03T11:28:40.751Z,101917.66
2023-04-03T11:31:41.588Z,101951.50
2023-04-03T11:34:43.362Z,101977.91
2023-04-03T11:37:42.668Z,101964.88
2023-04-03T11:40:34.435Z,101960.31
2023-04-03T11:43:32.562Z,101962.97
2023-04-03T11:46:20.638Z,101909.53
2023-04-03T11:49:05.827Z,101895.63
2023-04-03T11:51:51.528Z,101910.63
2023-04-03T11:54:48.628Z,101865.22
2023-04-03T11:57:46.260Z,101901.59
2023-04-03T12:00:51.896Z,101871.69
2023-04-03T12:03:45.978Z,101881.72
2023-04-03T12:06:34.367Z,101899.09
2023-04-03T12:09:41.145Z,101860.31
2023-04-03T12:12:36.518Z,101881.34
2023-04-03T12:15:27.314Z,101860.81
2023-04-03T12:18:40.788Z,101916.00
2023-04-03T12:21:28.772Z,101883.25
2023-04-03T12:24:17.274Z,101853.44
2023-04-03T12:27:34.431Z,101854.38
2023-04-03T12:30:26.105Z,101939.78
2023-04-03T12:33:19.851Z,101911.25
2023-04-03T12:36:13.731Z,101840.22
2023-04-03T12:39:16.871Z,101816.38
2023-04-03T12:42:40.744Z,101835.22
2023-04-03T12:45:27.080Z,101847.66
2023-04-03T12:48:25.080Z,101892.16
2023-04-03T12:51:16.081Z,101853.31
2023-04-03T12:54:32.957Z,101817.78
2023-04-03T12:57:28.573Z,101848.03
2023-04-03T13:00:33.591Z,101807.78
2023-04-03T13:03:26.942Z,101849.94
2023-04-03T13:06:19.945Z,101839.34
2023-04-03T13:09:05.696Z,101803.78
2023-04-03T13:11:57.581Z,101753.47
2023-04-03T13:14:56.802Z,101789.41
2023-04-03T13:17:44.083Z,101754.63
2023-04-03T13:20:33.367Z,101737.88
2023-04-03T13:23:20.792Z,101746.63
2023-04-03T13:26:07.707Z,101724.44
2023-04-03T13:28:55.235Z,101755.13
2023-04-03T13:31:40.962Z,101795.16
2023-04-03T13:34:36.619Z,101773.13
2023-04-03T13:37:34.470Z,101760.97
2023-04-03T13:40:19.815Z,101721.06
2023-04-03T13:43:19.998Z,101795.72
2023-04-03T13:46:11.750Z,101785.31
2023-04-03T13:48:58.051Z,101800.38
2023-04-03T13:51:43.259Z,101758.63
2023-04-03T13:54:38.524Z,101728.13
2023-04-03T13:57:24.229Z,101700.66
2023-04-03T14:00:53.014Z,101803.00
2023-04-03T14:03:45.982Z,101714.63
2023-04-03T14:06:31.115Z,101757.16
2023-04-03T14:09:18.381Z,101734.38
2023-04-03T14:12:31.901Z,101715.16
2023-04-03T14:15:23.058Z,101761.44
2023-04-03T14:18:12.421Z,101737.06
2023-04-03T14:20:57.826Z,101722.94
2023-04-03T14:23:43.478Z,101769.09
2023-04-03T14:26:29.688Z,101752.41
2023-04-03T14:29:15.533Z,101739.53
2023-04-03T14:32:13.659Z,101736.25
2023-04-03T14:35:03.310Z,101732.66
2023-04-03T14:37:49.795Z,101705.81
2023-04-03T14:40:34.914Z,101730.84
2023-04-03T14:43:21.122Z,101731.28
2023-04-03T14:46:20.596Z,101699.88
2023-04-03T14:49:19.176Z,101684.47
2023-04-03T14:52:05.226Z,101724.91
2023-04-03T14:54:51.420Z,101671.69
2023-04-03T14:57:39.280Z,101712.34
2023-04-03T15:00:24.676Z,101675.91
2023-04-03T15:03:22.170Z,101654.78
2023-04-03T15:06:13.390Z,101657.53
2023-04-03T15:08:58.556Z,101637.00
2023-04-03T15:11:44.052Z,101665.81
2023-04-03T15:14:37.087Z,101689.03
2023-04-03T15:17:28.019Z,101646.41
2023-04-03T15:20:16.428Z,101663.09
2023-04-03T15:23:02.439Z,101635.22
2023-04-03T15:25:49.577Z,101612.66
2023-04-03T15:28:36.240Z,101616.25
2023-04-03T15:31:21.619Z,101637.44
2023-04-03T15:34:06.801Z,101614.41
2023-04-03T15:36:52.307Z,101649.25
2023-04-03T15:39:39.971Z,101636.84
2023-04-03T15:42:25.209Z,101707.06
2023-04-03T15:45:11.252Z,101638.69
2023-04-03T15:47:56.548Z,101612.34
2023-04-03T15:50:42.409Z,101636.72
2023-04-03T15:53:27.881Z,101647.13
2023-04-03T15:56:13.381Z,101682.75
2023-04-03T15:58:58.933Z,101659.53
2023-04-03T16:01:44.436Z,101665.25
2023-04-03T16:04:29.968Z,101649.88
2023-04-03T16:07:16.133Z,101653.78
2023-04-03T16:10:01.783Z,101650.16
2023-04-03T16:12:47.233Z,101665.16
2023-04-03T16:15:33.791Z,101673.75
2023-04-03T16:18:19.293Z,101679.53
2023-04-03T16:21:04.437Z,101665.28
2023-04-03T16:23:49.777Z,101666.00
2023-04-03T16:26:34.954Z,101672.50
2023-04-03T16:29:20.367Z,101713.28
2023-04-03T16:32:05.754Z,101675.44
2023-04-03T16:34:51.301Z,101666.16
2023-04-03T16:37:37.447Z,101699.75
2023-04-03T16:40:22.552Z,101642.94
2023-04-03T16:43:08.061Z,101655.56
2023-04-03T16:45:53.585Z,101627.19
2023-04-03T16:48:39.118Z,101670.09
2023-04-03T16:51:24.366Z,101639.84
2023-04-03T16:54:09.691Z,101660.00
2023-04-03T16:56:54.606Z,101657.72
2023-04-03T16:59:39.865Z,101672.94
2023-04-03T17:02:25.894Z,101687.59
2023-04-03T17:05:11.252Z,101699.25
2023-04-03T17:07:56.540Z,101668.22
2023-04-03T17:10:42.015Z,101683.63
2023-04-03T17:13:27.490Z,101668.00
2023-04-03T17:16:15.960Z,101673.09
2023-04-03T17:19:01.761Z,101654.19
2023-04-03T17:21:47.039Z,101660.94
2023-04-03T17:24:33.298Z,101673.59
2023-04-03T17:27:18.462Z,101671.25
2023-04-03T17:30:05.303Z,101686.03
2023-04-03T17:32:50.907Z,101705.94
2023-04-03T17:35:35.931Z,101692.06
2023-04-03T17:38:20.874Z,101699.13
2023-04-03T17:41:08.044Z,101728.16
2023-04-03T17:43:53.542Z,101716.91
2023-04-03T17:46:38.712Z,101722.59
2023-04-03T17:49:24.036Z,101712.53
2023-04-03T17:52:09.439Z,101701.97
2023-04-03T17:54:54.804Z,101734.09
2023-04-03T17:57:39.929Z,101749.16
2023-04-03T18:00:25.446Z,101742.31
2023-04-03T18:03:10.442Z,101768.41
2023-04-03T18:05:56.052Z,101765.50
2023-04-03T18:08:46.237Z,101739.28
2023-04-03T18:11:31.775Z,101757.56
2023-04-03T18:14:21.175Z,101780.84
2023-04-03T18:17:07.138Z,101813.38
2023-04-03T18:19:52.886Z,101808.66
2023-04-03T18:22:37.938Z,101828.38
2023-04-03T18:25:23.371Z,101855.38
2023-04-03T18:28:09.516Z,101855.69
2023-04-03T18:30:54.916Z,101856.97
2023-04-03T18:33:40.261Z,101848.81
2023-04-03T18:36:27.098Z,101834.09
2023-04-03T18:39:12.485Z,101829.59
2023-04-03T18:42:00.305Z,101866.19
2023-04-03T18:44:49.755Z,101880.66
2023-04-03T18:47:34.822Z,101879.50
2023-04-03T18:50:20.483Z,101871.88
2023-04-03T18:53:06.127Z,101879.16
2023-04-03T18:55:51.514Z,101875.66
2023-04-03T18:58:36.853Z,101881.41
2023-04-03T19:01:22.505Z,101896.59
2023-04-03T19:04:08.346Z,101881.31
2023-04-03T19:06:53.591Z,101887.69
2023-04-03T19:09:39.803Z,101877.69
2023-04-03T19:12:24.853Z,101872.84
2023-04-03T19:15:11.965Z,101888.59
2023-04-03T19:17:57.190Z,101888.59
2023-04-03T19:20:42.561Z,101894.09
2023-04-03T19:23:27.535Z,101910.78
2023-04-03T19:26:13.485Z,101914.22
2023-04-03T19:28:58.607Z,101933.34
2023-04-03T19:31:43.962Z,101962.03
2023-04-03T19:34:29.402Z,101955.13
2023-04-03T19:37:14.836Z,101945.38
2023-04-03T19:40:00.353Z,101953.03
2023-04-03T19:42:45.531Z,101965.28
2023-04-03T19:45:30.532Z,101975.69
2023-04-03T19:48:16.023Z,101996.38
2023-04-03T19:51:01.114Z,102001.41
2023-04-03T19:53:46.422Z,102009.03
2023-04-03T19:56:31.892Z,102012.47
2023-04-03T19:59:17.056Z,102029.53
2023-04-03T20:02:02.576Z,102026.84
2023-04-03T20:04:48.187Z,102032.75
2023-04-03T20:07:33.375Z,102004.84
2023-04-03T20:10:18.786Z,101991.28
2023-04-03T20:13:04.113Z,101993.66
2023-04-03T20:15:49.230Z,101999.78
2023-04-03T20:18:35.359Z,102007.47
2023-04-03T20:21:20.827Z,102014.25
2023-04-03T20:24:09.282Z,102028.75
2023-04-03T20:26:55.697Z,102052.19
2023-04-03T20:29:40.866Z,102046.16
2023-04-03T20:32:25.894Z,102032.97
2023-04-03T20:35:11.319Z,102044.91
2023-04-03T20:37:57.024Z,102057.22
2023-04-03T20:40:42.524Z,102039.19
2023-04-03T20:43:28.176Z,102036.44
2023-04-03T20:46:13.744Z,102046.44
2023-04-03T20:48:59.105Z,102039.50
2023-04-03T20:51:44.574Z,102049.56
2023-04-03T20:54:29.847Z,102053.31
2023-04-03T20:57:15.050Z,102066.91
2023-04-03T21:00:00.608Z,102061.78
2023-04-03T21:02:46.779Z,102054.19
2023-04-03T21:05:31.985Z,102056.09
2023-04-03T21:08:55.120Z,102058.16
2023-04-03T21:12:18.100Z,102062.22
2023-04-03T21:15:40.775Z,102058.03
2023-04-03T21:19:07.984Z,102081.31
2023-04-03T21:21:53.614Z,102099.16
2023-04-03T21:24:38.830Z,102102.09
2023-04-03T21:27:24.000Z,102108.78
2023-04-03T21:30:09.688Z,102116.03
2023-04-03T21:32:55.113Z,102133.47
2023-04-03T21:35:40.425Z,102140.16
2023-04-03T21:38:25.849Z,102128.81
2023-04-03T21:41:11.306Z,102130.38
2023-04-03T21:43:56.424Z,102131.97
2023-04-03T21:46:41.589Z,102125.63
2023-04-03T21:49:26.933Z,102136.59
2023-04-03T21:52:12.416Z,102126.81
2023-04-03T21:54:57.771Z,102137.28
2023-04-03T21:57:43.285Z,102138.59
2023-04-03T22:00:28.837Z,102138.47
2023-04-03T22:03:19.046Z,102133.16
2023-04-03T22:06:04.812Z,102124.81
2023-04-03T22:08:49.900Z,102124.38
2023-04-03T22:11:35.296Z,102120.38
2023-04-03T22:14:20.878Z,102116.06
2023-04-03T22:17:06.056Z,102105.38
2023-04-03T22:19:51.633Z,102117.69
2023-04-03T22:22:36.959Z,102109.81
2023-04-03T22:25:22.229Z,102115.19
2023-04-03T22:28:07.620Z,102111.75
2023-04-03T22:30:53.608Z,102123.88
2023-04-03T22:33:39.046Z,102137.41
2023-04-03T22:36:23.966Z,102134.03
2023-04-03T22:39:09.443Z,102151.56
2023-04-03T22:41:55.075Z,102152.25
2023-04-03T22:44:40.442Z,102162.16
2023-04-03T22:47:26.030Z,102165.91
2023-04-03T22:50:11.313Z,102161.09
2023-04-03T22:52:56.673Z,102168.28
2023-04-03T22:55:44.057Z,102168.28
2023-04-03T22:58:29.474Z,102173.28
2023-04-03T23:01:14.977Z,102174.44
2023-04-03T23:04:00.533Z,102171.84
2023-04-03T23:06:45.829Z,102184.59
2023-04-03T23:09:31.295Z,102200.19
2023-04-03T23:12:16.662Z,102204.91
2023-04-03T23:15:02.173Z,102212.97
2023-04-03T23:17:47.978Z,102208.09
2023-04-03T23:20:33.327Z,102213.13
2023-04-03T23:23:18.831Z,102213.63
2023-04-03T23:26:04.302Z,102214.41
2023-04-03T23:28:49.501Z,102217.69
2023-04-03T23:31:34.941Z,102218.47
2023-04-03T23:34:20.269Z,102227.41
2023-04-03T23:37:05.578Z,102231.41
2023-04-03T23:39:50.630Z,102240.94
2023-04-03T23:42:36.010Z,102227.16
2023-04-03T23:45:21.398Z,102233.97
2023-04-03T23:48:07.890Z,102237.97
2023-04-03T23:50:52.936Z,102225.78
2023-04-03T23:53:38.410Z,102221.31
2023-04-03T23:56:24.029Z,102216.88
2023-04-03T23:59:09.535Z,102227.31
